Main page
METAR-TAF:

METAR-TAF

Airports :

Boone County Airport

Harrison, Arkansas, United States

latitude: 36-15-42N, longitude: 093-09-17W, elevation: 1364 ft

Current weather observation

The report was made 8 minutes ago, at 05:53 UTC
Wind 5 mph from the West
Temperature 39°F
Humidity 70%
Pressure 30.25 in. Hg
Visibility: 10 miles
Clear sky

METAR: KHRO 220553Z AUTO 26004KT 10SM CLR 04/M01 A3025 RMK AO2 SLP243 T00391011 10133 20033 401560033 58004 $

Time: 01:01 (06:01 UTC)

Forecast

The report was made 41 minutes ago, at 05:20 UTC
Forecast valid from 22 at 06 UTC to 23 at 06 UTC
Wind 3 mph from variable directions
Visibility: 6 miles
Clear sky
From 22 at 1500 UTC
Wind 12 mph from the South/Southwest with gusts up to 23 mph
Visibility: 6 miles
Clear sky
From 23 at 0100 UTC
Wind 8 mph from the South
Visibility: 6 miles
Clear sky

TAF: KHRO 220520Z 2206/2306 VRB03KT P6SM SKC FM221500 20010G20KT P6SM SKC FM230100 18007KT P6SM SKC

Weather observations and forecasts of more than 4000 airports (METAR and TAF reports).

The available stations are represented by yellow and red dots on the map.

Hover mouse over dot to see the name of the station.

Then click to see weather observations and forecasts.

To change the map : click on the green buttons with a black cross to zoom in, on the green button with a dash to zoom out, or on the green arrows for adjacent maps.


METAR-TAF: